sensor_id;sensor_type;location;lat;lon;timestamp;temperature;humidity
7708;DHT22;3896;48.758;8.888;2023-12-04T00:01:16;-4.30;80.80
7708;DHT22;3896;48.758;8.888;2023-12-04T00:03:42;-4.30;81.10
7708;DHT22;3896;48.758;8.888;2023-12-04T00:06:09;-4.30;81.50
7708;DHT22;3896;48.758;8.888;2023-12-04T00:08:35;-4.30;81.70
7708;DHT22;3896;48.758;8.888;2023-12-04T00:11:01;-4.30;82.00
7708;DHT22;3896;48.758;8.888;2023-12-04T00:13:26;-4.30;82.30
7708;DHT22;3896;48.758;8.888;2023-12-04T00:15:52;-4.30;82.60
7708;DHT22;3896;48.758;8.888;2023-12-04T00:18:17;-4.40;82.60
7708;DHT22;3896;48.758;8.888;2023-12-04T00:20:43;-4.40;82.90
7708;DHT22;3896;48.758;8.888;2023-12-04T00:23:08;-4.40;83.10
7708;DHT22;3896;48.758;8.888;2023-12-04T00:25:34;-4.40;83.20
7708;DHT22;3896;48.758;8.888;2023-12-04T00:27:59;-4.40;83.40
7708;DHT22;3896;48.758;8.888;2023-12-04T00:30:25;-4.40;83.80
7708;DHT22;3896;48.758;8.888;2023-12-04T00:32:51;-4.40;83.90
7708;DHT22;3896;48.758;8.888;2023-12-04T00:35:16;-4.40;84.40
7708;DHT22;3896;48.758;8.888;2023-12-04T00:37:42;-4.40;84.50
7708;DHT22;3896;48.758;8.888;2023-12-04T00:40:08;-4.40;84.60
7708;DHT22;3896;48.758;8.888;2023-12-04T00:42:33;-4.40;84.70
7708;DHT22;3896;48.758;8.888;2023-12-04T00:44:59;-4.40;84.90
7708;DHT22;3896;48.758;8.888;2023-12-04T00:47:24;-4.40;84.80
7708;DHT22;3896;48.758;8.888;2023-12-04T00:49:50;-4.40;84.70
7708;DHT22;3896;48.758;8.888;2023-12-04T00:52:15;-4.40;84.70
7708;DHT22;3896;48.758;8.888;2023-12-04T00:54:41;-4.40;84.60
7708;DHT22;3896;48.758;8.888;2023-12-04T00:57:07;-4.40;85.20
7708;DHT22;3896;48.758;8.888;2023-12-04T00:59:33;-4.40;84.70
7708;DHT22;3896;48.758;8.888;2023-12-04T01:01:58;-4.40;85.00
7708;DHT22;3896;48.758;8.888;2023-12-04T01:04:24;-4.40;85.10
7708;DHT22;3896;48.758;8.888;2023-12-04T01:06:49;-4.40;85.00
7708;DHT22;3896;48.758;8.888;2023-12-04T01:09:15;-4.40;85.20
7708;DHT22;3896;48.758;8.888;2023-12-04T01:11:41;-4.40;85.30
7708;DHT22;3896;48.758;8.888;2023-12-04T01:14:06;-4.50;85.40
7708;DHT22;3896;48.758;8.888;2023-12-04T01:16:32;-4.40;85.60
7708;DHT22;3896;48.758;8.888;2023-12-04T01:18:57;-4.40;85.50
7708;DHT22;3896;48.758;8.888;2023-12-04T01:21:23;-4.40;85.40
7708;DHT22;3896;48.758;8.888;2023-12-04T01:23:48;-4.40;85.30
7708;DHT22;3896;48.758;8.888;2023-12-04T01:26:14;-4.40;85.30
7708;DHT22;3896;48.758;8.888;2023-12-04T01:28:39;-4.40;85.60
7708;DHT22;3896;48.758;8.888;2023-12-04T01:31:06;-4.40;86.10
7708;DHT22;3896;48.758;8.888;2023-12-04T01:33:32;-4.40;86.40
7708;DHT22;3896;48.758;8.888;2023-12-04T01:35:57;-4.40;86.70
7708;DHT22;3896;48.758;8.888;2023-12-04T01:38:23;-4.40;87.00
7708;DHT22;3896;48.758;8.888;2023-12-04T01:40:48;-4.40;87.20
7708;DHT22;3896;48.758;8.888;2023-12-04T01:43:15;-4.40;87.50
7708;DHT22;3896;48.758;8.888;2023-12-04T01:45:41;-4.40;87.70
7708;DHT22;3896;48.758;8.888;2023-12-04T01:48:07;-4.30;88.20
7708;DHT22;3896;48.758;8.888;2023-12-04T01:50:35;-4.40;88.00
7708;DHT22;3896;48.758;8.888;2023-12-04T01:53:01;-4.40;88.00
7708;DHT22;3896;48.758;8.888;2023-12-04T01:55:28;-4.40;87.90
7708;DHT22;3896;48.758;8.888;2023-12-04T01:57:55;-4.40;87.80
7708;DHT22;3896;48.758;8.888;2023-12-04T02:00:21;-4.30;87.90
7708;DHT22;3896;48.758;8.888;2023-12-04T02:02:47;-4.30;88.40
7708;DHT22;3896;48.758;8.888;2023-12-04T02:05:14;-4.30;87.60
7708;DHT22;3896;48.758;8.888;2023-12-04T02:07:41;-4.30;87.60
7708;DHT22;3896;48.758;8.888;2023-12-04T02:10:07;-4.30;87.90
7708;DHT22;3896;48.758;8.888;2023-12-04T02:12:32;-4.30;88.00
7708;DHT22;3896;48.758;8.888;2023-12-04T02:14:59;-4.30;88.10
7708;DHT22;3896;48.758;8.888;2023-12-04T02:17:25;-4.30;88.20
7708;DHT22;3896;48.758;8.888;2023-12-04T02:19:51;-4.20;88.50
7708;DHT22;3896;48.758;8.888;2023-12-04T02:22:18;-4.30;88.50
7708;DHT22;3896;48.758;8.888;2023-12-04T02:24:45;-4.30;88.50
7708;DHT22;3896;48.758;8.888;2023-12-04T02:27:18;-4.30;88.80
7708;DHT22;3896;48.758;8.888;2023-12-04T02:29:53;-4.30;88.90
7708;DHT22;3896;48.758;8.888;2023-12-04T02:32:22;-4.30;88.80
7708;DHT22;3896;48.758;8.888;2023-12-04T02:34:49;-4.30;88.60
7708;DHT22;3896;48.758;8.888;2023-12-04T02:37:16;-4.20;88.50
7708;DHT22;3896;48.758;8.888;2023-12-04T02:39:42;-4.30;88.30
7708;DHT22;3896;48.758;8.888;2023-12-04T02:42:08;-4.30;88.40
7708;DHT22;3896;48.758;8.888;2023-12-04T02:44:34;-4.30;88.40
7708;DHT22;3896;48.758;8.888;2023-12-04T02:47:00;-4.30;88.30
7708;DHT22;3896;48.758;8.888;2023-12-04T02:49:25;-4.30;88.40
7708;DHT22;3896;48.758;8.888;2023-12-04T02:51:51;-4.30;88.40
7708;DHT22;3896;48.758;8.888;2023-12-04T02:54:16;-4.30;88.40
7708;DHT22;3896;48.758;8.888;2023-12-04T02:56:42;-4.30;88.50
7708;DHT22;3896;48.758;8.888;2023-12-04T02:59:07;-4.30;88.70
7708;DHT22;3896;48.758;8.888;2023-12-04T03:01:33;-4.30;89.00
7708;DHT22;3896;48.758;8.888;2023-12-04T03:03:58;-4.30;89.10
7708;DHT22;3896;48.758;8.888;2023-12-04T03:06:24;-4.30;89.50
7708;DHT22;3896;48.758;8.888;2023-12-04T03:08:49;-4.30;90.00
7708;DHT22;3896;48.758;8.888;2023-12-04T03:11:15;-4.30;90.10
7708;DHT22;3896;48.758;8.888;2023-12-04T03:13:40;-4.30;90.20
7708;DHT22;3896;48.758;8.888;2023-12-04T03:16:14;-4.30;90.30
7708;DHT22;3896;48.758;8.888;2023-12-04T03:18:39;-4.30;90.30
7708;DHT22;3896;48.758;8.888;2023-12-04T03:21:06;-4.30;90.30
7708;DHT22;3896;48.758;8.888;2023-12-04T03:23:32;-4.30;90.50
7708;DHT22;3896;48.758;8.888;2023-12-04T03:25:57;-4.30;90.60
7708;DHT22;3896;48.758;8.888;2023-12-04T03:28:23;-4.30;90.70
7708;DHT22;3896;48.758;8.888;2023-12-04T03:30:48;-4.30;90.80
7708;DHT22;3896;48.758;8.888;2023-12-04T03:33:14;-4.30;90.90
7708;DHT22;3896;48.758;8.888;2023-12-04T03:35:39;-4.30;91.00
7708;DHT22;3896;48.758;8.888;2023-12-04T03:38:05;-4.30;91.00
7708;DHT22;3896;48.758;8.888;2023-12-04T03:40:31;-4.30;91.00
7708;DHT22;3896;48.758;8.888;2023-12-04T03:42:57;-4.30;91.20
7708;DHT22;3896;48.758;8.888;2023-12-04T03:45:22;-4.30;91.30
7708;DHT22;3896;48.758;8.888;2023-12-04T03:47:48;-4.30;91.50
7708;DHT22;3896;48.758;8.888;2023-12-04T03:50:13;-4.20;91.70
7708;DHT22;3896;48.758;8.888;2023-12-04T03:52:39;-4.20;91.60
7708;DHT22;3896;48.758;8.888;2023-12-04T03:55:05;-4.20;91.70
7708;DHT22;3896;48.758;8.888;2023-12-04T03:57:30;-4.20;91.80
7708;DHT22;3896;48.758;8.888;2023-12-04T03:59:56;-4.20;91.90
7708;DHT22;3896;48.758;8.888;2023-12-04T04:02:21;-4.20;91.90
7708;DHT22;3896;48.758;8.888;2023-12-04T04:04:47;-4.10;92.00
7708;DHT22;3896;48.758;8.888;2023-12-04T04:07:16;-4.10;92.10
7708;DHT22;3896;48.758;8.888;2023-12-04T04:09:41;-4.10;92.00
7708;DHT22;3896;48.758;8.888;2023-12-04T04:12:07;-4.10;92.10
7708;DHT22;3896;48.758;8.888;2023-12-04T04:14:33;-4.10;92.10
7708;DHT22;3896;48.758;8.888;2023-12-04T04:16:58;-4.10;92.10
7708;DHT22;3896;48.758;8.888;2023-12-04T04:19:24;-4.00;92.20
7708;DHT22;3896;48.758;8.888;2023-12-04T04:21:49;-4.00;92.10
7708;DHT22;3896;48.758;8.888;2023-12-04T04:24:15;-4.00;92.20
7708;DHT22;3896;48.758;8.888;2023-12-04T04:26:40;-4.00;92.20
7708;DHT22;3896;48.758;8.888;2023-12-04T04:29:06;-4.00;92.20
7708;DHT22;3896;48.758;8.888;2023-12-04T04:31:31;-4.00;92.20
7708;DHT22;3896;48.758;8.888;2023-12-04T04:33:57;-3.90;92.20
7708;DHT22;3896;48.758;8.888;2023-12-04T04:36:22;-3.90;92.30
7708;DHT22;3896;48.758;8.888;2023-12-04T04:38:48;-3.90;92.30
7708;DHT22;3896;48.758;8.888;2023-12-04T04:41:16;-3.90;92.20
7708;DHT22;3896;48.758;8.888;2023-12-04T04:43:42;-3.90;92.10
7708;DHT22;3896;48.758;8.888;2023-12-04T04:46:08;-3.90;92.10
7708;DHT22;3896;48.758;8.888;2023-12-04T04:48:33;-3.80;92.70
7708;DHT22;3896;48.758;8.888;2023-12-04T04:50:59;-3.90;92.40
7708;DHT22;3896;48.758;8.888;2023-12-04T04:53:24;-3.80;92.70
7708;DHT22;3896;48.758;8.888;2023-12-04T04:55:50;-3.80;92.90
7708;DHT22;3896;48.758;8.888;2023-12-04T04:58:18;-3.80;92.90
7708;DHT22;3896;48.758;8.888;2023-12-04T05:00:45;-3.80;93.00
7708;DHT22;3896;48.758;8.888;2023-12-04T05:03:11;-3.80;93.20
7708;DHT22;3896;48.758;8.888;2023-12-04T05:05:36;-3.80;93.40
7708;DHT22;3896;48.758;8.888;2023-12-04T05:08:02;-3.80;93.60
7708;DHT22;3896;48.758;8.888;2023-12-04T05:10:27;-3.80;93.60
7708;DHT22;3896;48.758;8.888;2023-12-04T05:12:53;-3.70;93.60
7708;DHT22;3896;48.758;8.888;2023-12-04T05:15:18;-3.70;93.70
7708;DHT22;3896;48.758;8.888;2023-12-04T05:17:44;-3.70;93.80
7708;DHT22;3896;48.758;8.888;2023-12-04T05:20:10;-3.70;93.90
7708;DHT22;3896;48.758;8.888;2023-12-04T05:22:35;-3.70;94.00
7708;DHT22;3896;48.758;8.888;2023-12-04T05:25:01;-3.60;94.10
7708;DHT22;3896;48.758;8.888;2023-12-04T05:27:27;-3.60;94.20
7708;DHT22;3896;48.758;8.888;2023-12-04T05:29:52;-3.60;94.30
7708;DHT22;3896;48.758;8.888;2023-12-04T05:32:18;-3.60;94.70
7708;DHT22;3896;48.758;8.888;2023-12-04T05:34:43;-3.60;94.30
7708;DHT22;3896;48.758;8.888;2023-12-04T05:37:09;-3.60;94.30
7708;DHT22;3896;48.758;8.888;2023-12-04T05:39:34;-3.60;94.30
7708;DHT22;3896;48.758;8.888;2023-12-04T05:42:00;-3.50;94.40
7708;DHT22;3896;48.758;8.888;2023-12-04T05:44:25;-3.50;94.40
7708;DHT22;3896;48.758;8.888;2023-12-04T05:46:51;-3.50;94.40
7708;DHT22;3896;48.758;8.888;2023-12-04T05:49:17;-3.50;94.30
7708;DHT22;3896;48.758;8.888;2023-12-04T05:51:43;-3.50;94.30
7708;DHT22;3896;48.758;8.888;2023-12-04T05:54:08;-3.50;94.30
7708;DHT22;3896;48.758;8.888;2023-12-04T05:56:34;-3.50;94.40
7708;DHT22;3896;48.758;8.888;2023-12-04T05:58:59;-3.40;94.40
7708;DHT22;3896;48.758;8.888;2023-12-04T06:01:25;-3.50;94.50
7708;DHT22;3896;48.758;8.888;2023-12-04T06:03:51;-3.50;94.50
7708;DHT22;3896;48.758;8.888;2023-12-04T06:06:16;-3.40;94.60
7708;DHT22;3896;48.758;8.888;2023-12-04T06:08:42;-3.40;94.70
7708;DHT22;3896;48.758;8.888;2023-12-04T06:11:07;-3.40;94.60
7708;DHT22;3896;48.758;8.888;2023-12-04T06:13:33;-3.40;94.70
7708;DHT22;3896;48.758;8.888;2023-12-04T06:29:28;-3.40;94.90
7708;DHT22;3896;48.758;8.888;2023-12-04T06:31:54;-3.40;94.80
7708;DHT22;3896;48.758;8.888;2023-12-04T06:34:20;-3.30;94.90
7708;DHT22;3896;48.758;8.888;2023-12-04T06:36:46;-3.30;94.80
7708;DHT22;3896;48.758;8.888;2023-12-04T06:39:12;-3.30;94.70
7708;DHT22;3896;48.758;8.888;2023-12-04T06:41:39;-3.30;94.60
7708;DHT22;3896;48.758;8.888;2023-12-04T06:44:06;-3.20;94.70
7708;DHT22;3896;48.758;8.888;2023-12-04T06:46:36;-3.20;95.00
7708;DHT22;3896;48.758;8.888;2023-12-04T06:49:04;-3.20;95.20
7708;DHT22;3896;48.758;8.888;2023-12-04T06:51:31;-3.20;95.30
7708;DHT22;3896;48.758;8.888;2023-12-04T06:53:56;-3.20;95.50
7708;DHT22;3896;48.758;8.888;2023-12-04T06:56:22;-3.20;95.70
7708;DHT22;3896;48.758;8.888;2023-12-04T06:58:47;-3.20;95.90
7708;DHT22;3896;48.758;8.888;2023-12-04T07:01:13;-3.20;96.00
7708;DHT22;3896;48.758;8.888;2023-12-04T07:03:38;-3.10;95.90
7708;DHT22;3896;48.758;8.888;2023-12-04T07:06:04;-3.10;95.70
7708;DHT22;3896;48.758;8.888;2023-12-04T07:08:30;-3.10;95.60
7708;DHT22;3896;48.758;8.888;2023-12-04T07:10:56;-3.10;95.70
7708;DHT22;3896;48.758;8.888;2023-12-04T07:13:21;-3.10;95.80
7708;DHT22;3896;48.758;8.888;2023-12-04T07:15:47;-3.00;96.00
7708;DHT22;3896;48.758;8.888;2023-12-04T07:18:12;-3.00;96.20
7708;DHT22;3896;48.758;8.888;2023-12-04T07:20:38;-3.00;96.30
7708;DHT22;3896;48.758;8.888;2023-12-04T07:23:03;-3.00;96.40
7708;DHT22;3896;48.758;8.888;2023-12-04T07:25:29;-3.00;96.60
7708;DHT22;3896;48.758;8.888;2023-12-04T07:27:54;-3.00;96.70
7708;DHT22;3896;48.758;8.888;2023-12-04T07:30:20;-2.90;96.80
7708;DHT22;3896;48.758;8.888;2023-12-04T07:32:46;-2.90;96.70
7708;DHT22;3896;48.758;8.888;2023-12-04T07:35:12;-2.90;96.70
7708;DHT22;3896;48.758;8.888;2023-12-04T07:37:38;-2.90;96.90
7708;DHT22;3896;48.758;8.888;2023-12-04T07:40:04;-2.90;96.90
7708;DHT22;3896;48.758;8.888;2023-12-04T07:42:31;-2.80;97.00
7708;DHT22;3896;48.758;8.888;2023-12-04T07:44:56;-2.80;97.20
7708;DHT22;3896;48.758;8.888;2023-12-04T07:47:23;-2.80;97.40
7708;DHT22;3896;48.758;8.888;2023-12-04T07:49:48;-2.80;97.30
7708;DHT22;3896;48.758;8.888;2023-12-04T07:52:14;-2.70;97.70
7708;DHT22;3896;48.758;8.888;2023-12-04T07:54:40;-2.70;97.50
7708;DHT22;3896;48.758;8.888;2023-12-04T07:57:05;-2.70;97.60
7708;DHT22;3896;48.758;8.888;2023-12-04T07:59:31;-2.60;97.60
7708;DHT22;3896;48.758;8.888;2023-12-04T08:01:56;-2.60;97.90
7708;DHT22;3896;48.758;8.888;2023-12-04T08:04:22;-2.60;97.90
7708;DHT22;3896;48.758;8.888;2023-12-04T08:06:47;-2.50;98.00
7708;DHT22;3896;48.758;8.888;2023-12-04T08:09:13;-2.50;98.00
7708;DHT22;3896;48.758;8.888;2023-12-04T08:11:39;-2.50;98.10
7708;DHT22;3896;48.758;8.888;2023-12-04T08:14:05;-2.50;98.40
7708;DHT22;3896;48.758;8.888;2023-12-04T08:16:31;-2.40;98.60
7708;DHT22;3896;48.758;8.888;2023-12-04T08:18:56;-2.40;98.40
7708;DHT22;3896;48.758;8.888;2023-12-04T08:21:22;-2.30;98.30
7708;DHT22;3896;48.758;8.888;2023-12-04T08:23:47;-2.30;98.30
7708;DHT22;3896;48.758;8.888;2023-12-04T08:26:13;-2.30;98.60
7708;DHT22;3896;48.758;8.888;2023-12-04T08:28:38;-2.20;98.40
7708;DHT22;3896;48.758;8.888;2023-12-04T08:31:08;-2.20;98.60
7708;DHT22;3896;48.758;8.888;2023-12-04T08:33:34;-2.20;98.60
7708;DHT22;3896;48.758;8.888;2023-12-04T08:36:00;-2.10;98.60
7708;DHT22;3896;48.758;8.888;2023-12-04T08:38:26;-2.10;98.80
7708;DHT22;3896;48.758;8.888;2023-12-04T08:40:52;-2.00;98.90
7708;DHT22;3896;48.758;8.888;2023-12-04T08:43:18;-2.00;99.00
7708;DHT22;3896;48.758;8.888;2023-12-04T08:45:47;-2.00;99.50
7708;DHT22;3896;48.758;8.888;2023-12-04T08:48:12;-1.90;99.80
7708;DHT22;3896;48.758;8.888;2023-12-04T08:50:38;-1.90;99.60
7708;DHT22;3896;48.758;8.888;2023-12-04T08:53:04;-1.80;99.60
7708;DHT22;3896;48.758;8.888;2023-12-04T08:55:29;-1.80;99.70
7708;DHT22;3896;48.758;8.888;2023-12-04T08:57:55;-1.70;99.70
7708;DHT22;3896;48.758;8.888;2023-12-04T09:00:21;-1.70;99.80
7708;DHT22;3896;48.758;8.888;2023-12-04T09:02:48;-1.60;99.90
7708;DHT22;3896;48.758;8.888;2023-12-04T09:05:14;-1.60;99.90
7708;DHT22;3896;48.758;8.888;2023-12-04T09:07:39;-1.50;99.70
7708;DHT22;3896;48.758;8.888;2023-12-04T09:10:05;-1.50;99.60
7708;DHT22;3896;48.758;8.888;2023-12-04T09:12:31;-1.40;99.60
7708;DHT22;3896;48.758;8.888;2023-12-04T09:14:57;-1.40;99.50
7708;DHT22;3896;48.758;8.888;2023-12-04T09:17:22;-1.40;99.40
7708;DHT22;3896;48.758;8.888;2023-12-04T09:19:48;-1.30;99.30
7708;DHT22;3896;48.758;8.888;2023-12-04T09:22:14;-1.30;99.40
7708;DHT22;3896;48.758;8.888;2023-12-04T09:24:39;-1.30;99.50
7708;DHT22;3896;48.758;8.888;2023-12-04T09:27:05;-1.20;99.90
7708;DHT22;3896;48.758;8.888;2023-12-04T09:29:33;-1.20;99.90
7708;DHT22;3896;48.758;8.888;2023-12-04T09:31:59;-1.10;99.90
7708;DHT22;3896;48.758;8.888;2023-12-04T09:34:24;-1.10;99.90
7708;DHT22;3896;48.758;8.888;2023-12-04T09:36:50;-1.00;99.90
7708;DHT22;3896;48.758;8.888;2023-12-04T09:39:16;-1.00;99.80
7708;DHT22;3896;48.758;8.888;2023-12-04T09:41:43;-0.90;99.70
7708;DHT22;3896;48.758;8.888;2023-12-04T09:44:09;-0.90;99.60
7708;DHT22;3896;48.758;8.888;2023-12-04T09:46:35;-0.80;99.60
7708;DHT22;3896;48.758;8.888;2023-12-04T09:49:02;-0.80;99.60
7708;DHT22;3896;48.758;8.888;2023-12-04T09:51:28;-0.80;99.70
7708;DHT22;3896;48.758;8.888;2023-12-04T09:53:54;-0.70;99.80
7708;DHT22;3896;48.758;8.888;2023-12-04T09:56:23;-0.70;99.90
7708;DHT22;3896;48.758;8.888;2023-12-04T09:58:53;-0.60;99.90
7708;DHT22;3896;48.758;8.888;2023-12-04T10:01:23;-0.60;99.90
7708;DHT22;3896;48.758;8.888;2023-12-04T10:03:50;-0.60;99.90
7708;DHT22;3896;48.758;8.888;2023-12-04T10:06:16;-0.50;99.90
7708;DHT22;3896;48.758;8.888;2023-12-04T10:08:45;-0.40;99.90
7708;DHT22;3896;48.758;8.888;2023-12-04T10:11:12;-0.40;99.90
7708;DHT22;3896;48.758;8.888;2023-12-04T10:13:40;-0.40;99.70
7708;DHT22;3896;48.758;8.888;2023-12-04T10:16:06;-0.30;99.60
7708;DHT22;3896;48.758;8.888;2023-12-04T10:18:31;-0.30;99.60
7708;DHT22;3896;48.758;8.888;2023-12-04T10:20:58;-0.20;99.90
7708;DHT22;3896;48.758;8.888;2023-12-04T10:23:43;-0.20;99.80
7708;DHT22;3896;48.758;8.888;2023-12-04T10:26:09;-0.10;99.70
7708;DHT22;3896;48.758;8.888;2023-12-04T10:28:35;-0.10;99.60
7708;DHT22;3896;48.758;8.888;2023-12-04T10:31:01;0.00;99.50
7708;DHT22;3896;48.758;8.888;2023-12-04T10:33:29;0.00;99.40
7708;DHT22;3896;48.758;8.888;2023-12-04T10:35:56;0.10;99.30
7708;DHT22;3896;48.758;8.888;2023-12-04T10:38:21;0.10;99.20
7708;DHT22;3896;48.758;8.888;2023-12-04T10:40:47;0.20;99.10
7708;DHT22;3896;48.758;8.888;2023-12-04T10:43:16;0.30;99.10
7708;DHT22;3896;48.758;8.888;2023-12-04T10:45:43;0.30;99.30
7708;DHT22;3896;48.758;8.888;2023-12-04T10:48:10;0.40;99.40
7708;DHT22;3896;48.758;8.888;2023-12-04T10:50:37;0.50;99.50
7708;DHT22;3896;48.758;8.888;2023-12-04T10:53:06;0.50;99.70
7708;DHT22;3896;48.758;8.888;2023-12-04T10:55:33;0.60;99.50
7708;DHT22;3896;48.758;8.888;2023-12-04T10:58:07;0.60;99.70
7708;DHT22;3896;48.758;8.888;2023-12-04T11:00:39;0.70;99.60
7708;DHT22;3896;48.758;8.888;2023-12-04T11:03:07;0.80;99.60
7708;DHT22;3896;48.758;8.888;2023-12-04T11:05:37;0.80;99.90
7708;DHT22;3896;48.758;8.888;2023-12-04T11:08:16;0.90;99.80
7708;DHT22;3896;48.758;8.888;2023-12-04T11:10:58;1.00;99.80
7708;DHT22;3896;48.758;8.888;2023-12-04T11:13:28;1.00;99.90
7708;DHT22;3896;48.758;8.888;2023-12-04T11:16:00;1.10;99.80
7708;DHT22;3896;48.758;8.888;2023-12-04T11:18:28;1.10;99.70
7708;DHT22;3896;48.758;8.888;2023-12-04T11:21:04;1.20;99.70
7708;DHT22;3896;48.758;8.888;2023-12-04T11:23:31;1.30;99.70
7708;DHT22;3896;48.758;8.888;2023-12-04T11:25:58;1.30;99.60
7708;DHT22;3896;48.758;8.888;2023-12-04T11:28:26;1.40;99.70
7708;DHT22;3896;48.758;8.888;2023-12-04T11:30:53;1.40;99.60
7708;DHT22;3896;48.758;8.888;2023-12-04T11:33:19;1.50;99.70
7708;DHT22;3896;48.758;8.888;2023-12-04T11:35:45;1.50;99.70
7708;DHT22;3896;48.758;8.888;2023-12-04T11:38:14;1.50;99.90
7708;DHT22;3896;48.758;8.888;2023-12-04T11:40:41;1.60;99.90
7708;DHT22;3896;48.758;8.888;2023-12-04T11:43:27;1.60;99.90
7708;DHT22;3896;48.758;8.888;2023-12-04T11:45:53;1.60;99.90
7708;DHT22;3896;48.758;8.888;2023-12-04T11:48:23;1.70;99.90
7708;DHT22;3896;48.758;8.888;2023-12-04T11:50:51;1.70;99.90
7708;DHT22;3896;48.758;8.888;2023-12-04T11:53:17;1.80;99.90
7708;DHT22;3896;48.758;8.888;2023-12-04T11:55:42;1.80;99.90
7708;DHT22;3896;48.758;8.888;2023-12-04T11:58:09;1.90;99.90
7708;DHT22;3896;48.758;8.888;2023-12-04T12:00:36;1.90;99.90
7708;DHT22;3896;48.758;8.888;2023-12-04T12:03:05;1.90;99.90
7708;DHT22;3896;48.758;8.888;2023-12-04T12:05:33;2.00;99.90
7708;DHT22;3896;48.758;8.888;2023-12-04T12:08:05;2.00;99.90
7708;DHT22;3896;48.758;8.888;2023-12-04T12:10:33;2.00;99.90
7708;DHT22;3896;48.758;8.888;2023-12-04T12:12:59;2.10;99.90
7708;DHT22;3896;48.758;8.888;2023-12-04T12:15:25;2.10;99.90
7708;DHT22;3896;48.758;8.888;2023-12-04T12:17:51;2.10;99.90
7708;DHT22;3896;48.758;8.888;2023-12-04T12:20:19;2.20;99.90
7708;DHT22;3896;48.758;8.888;2023-12-04T12:22:47;2.20;99.90
7708;DHT22;3896;48.758;8.888;2023-12-04T12:25:13;2.20;99.90
7708;DHT22;3896;48.758;8.888;2023-12-04T12:27:39;2.20;99.90
7708;DHT22;3896;48.758;8.888;2023-12-04T12:30:06;2.30;99.90
7708;DHT22;3896;48.758;8.888;2023-12-04T12:32:35;2.30;99.90
7708;DHT22;3896;48.758;8.888;2023-12-04T12:35:02;2.30;99.90
7708;DHT22;3896;48.758;8.888;2023-12-04T12:37:28;2.40;99.90
7708;DHT22;3896;48.758;8.888;2023-12-04T12:39:54;2.40;99.90
7708;DHT22;3896;48.758;8.888;2023-12-04T12:42:27;2.40;99.90
7708;DHT22;3896;48.758;8.888;2023-12-04T12:44:54;2.40;99.90
7708;DHT22;3896;48.758;8.888;2023-12-04T12:47:21;2.50;99.90
7708;DHT22;3896;48.758;8.888;2023-12-04T12:49:48;2.50;99.90
7708;DHT22;3896;48.758;8.888;2023-12-04T12:52:14;2.50;99.90
7708;DHT22;3896;48.758;8.888;2023-12-04T12:54:40;2.50;99.90
7708;DHT22;3896;48.758;8.888;2023-12-04T12:57:07;2.60;99.90
7708;DHT22;3896;48.758;8.888;2023-12-04T12:59:33;2.60;99.90
7708;DHT22;3896;48.758;8.888;2023-12-04T13:01:59;2.60;99.90
7708;DHT22;3896;48.758;8.888;2023-12-04T13:04:35;2.70;99.90
7708;DHT22;3896;48.758;8.888;2023-12-04T13:07:01;2.70;99.90
7708;DHT22;3896;48.758;8.888;2023-12-04T13:09:28;2.70;99.90
7708;DHT22;3896;48.758;8.888;2023-12-04T13:11:54;2.80;99.90
7708;DHT22;3896;48.758;8.888;2023-12-04T13:14:19;2.80;99.90
7708;DHT22;3896;48.758;8.888;2023-12-04T13:16:45;2.80;99.90
7708;DHT22;3896;48.758;8.888;2023-12-04T13:19:10;2.80;99.90
7708;DHT22;3896;48.758;8.888;2023-12-04T13:21:36;2.90;99.90
7708;DHT22;3896;48.758;8.888;2023-12-04T13:24:01;2.90;99.90
7708;DHT22;3896;48.758;8.888;2023-12-04T13:26:32;2.90;99.90
7708;DHT22;3896;48.758;8.888;2023-12-04T13:28:58;2.90;99.90
7708;DHT22;3896;48.758;8.888;2023-12-04T13:31:24;2.90;99.90
7708;DHT22;3896;48.758;8.888;2023-12-04T13:33:50;2.90;99.90
7708;DHT22;3896;48.758;8.888;2023-12-04T13:36:15;2.90;99.90
7708;DHT22;3896;48.758;8.888;2023-12-04T13:38:41;3.00;99.90
7708;DHT22;3896;48.758;8.888;2023-12-04T13:41:06;3.00;99.90
7708;DHT22;3896;48.758;8.888;2023-12-04T13:44:04;3.00;99.90
7708;DHT22;3896;48.758;8.888;2023-12-04T13:46:30;3.00;99.90
7708;DHT22;3896;48.758;8.888;2023-12-04T13:48:56;3.00;99.90
7708;DHT22;3896;48.758;8.888;2023-12-04T13:51:22;3.00;99.90
7708;DHT22;3896;48.758;8.888;2023-12-04T13:53:48;3.00;99.90
7708;DHT22;3896;48.758;8.888;2023-12-04T13:56:14;3.00;99.90
7708;DHT22;3896;48.758;8.888;2023-12-04T13:58:46;3.00;99.90
7708;DHT22;3896;48.758;8.888;2023-12-04T14:01:14;3.00;99.90
7708;DHT22;3896;48.758;8.888;2023-12-04T14:03:44;3.00;99.90
7708;DHT22;3896;48.758;8.888;2023-12-04T14:06:10;3.00;99.90
7708;DHT22;3896;48.758;8.888;2023-12-04T14:08:36;3.10;99.90
7708;DHT22;3896;48.758;8.888;2023-12-04T14:11:03;3.10;99.90
7708;DHT22;3896;48.758;8.888;2023-12-04T14:13:29;3.10;99.90
7708;DHT22;3896;48.758;8.888;2023-12-04T14:15:54;3.10;99.90
7708;DHT22;3896;48.758;8.888;2023-12-04T14:18:20;3.10;99.90
7708;DHT22;3896;48.758;8.888;2023-12-04T14:20:46;3.10;99.90
7708;DHT22;3896;48.758;8.888;2023-12-04T14:23:12;3.10;99.90
7708;DHT22;3896;48.758;8.888;2023-12-04T14:25:37;3.10;99.90
7708;DHT22;3896;48.758;8.888;2023-12-04T14:28:03;3.20;99.90
7708;DHT22;3896;48.758;8.888;2023-12-04T14:30:28;3.10;99.90
7708;DHT22;3896;48.758;8.888;2023-12-04T14:32:55;3.20;99.90
7708;DHT22;3896;48.758;8.888;2023-12-04T14:35:20;3.20;99.90
7708;DHT22;3896;48.758;8.888;2023-12-04T14:37:46;3.20;99.90
7708;DHT22;3896;48.758;8.888;2023-12-04T14:40:12;3.20;99.90
7708;DHT22;3896;48.758;8.888;2023-12-04T14:42:40;3.30;99.90
7708;DHT22;3896;48.758;8.888;2023-12-04T14:45:06;3.30;99.90
7708;DHT22;3896;48.758;8.888;2023-12-04T14:47:31;3.30;99.90
7708;DHT22;3896;48.758;8.888;2023-12-04T14:49:57;3.30;99.90
7708;DHT22;3896;48.758;8.888;2023-12-04T14:52:22;3.30;99.90
7708;DHT22;3896;48.758;8.888;2023-12-04T14:54:49;3.30;99.70
7708;DHT22;3896;48.758;8.888;2023-12-04T14:57:33;3.30;99.50
7708;DHT22;3896;48.758;8.888;2023-12-04T15:00:05;3.30;99.30
7708;DHT22;3896;48.758;8.888;2023-12-04T15:02:50;3.30;99.10
7708;DHT22;3896;48.758;8.888;2023-12-04T15:05:38;3.30;99.10
7708;DHT22;3896;48.758;8.888;2023-12-04T15:08:39;3.30;99.10
7708;DHT22;3896;48.758;8.888;2023-12-04T15:11:23;3.30;99.10
7708;DHT22;3896;48.758;8.888;2023-12-04T15:14:07;3.30;99.20
7708;DHT22;3896;48.758;8.888;2023-12-04T15:16:52;3.20;99.30
7708;DHT22;3896;48.758;8.888;2023-12-04T15:19:25;3.30;99.50
7708;DHT22;3896;48.758;8.888;2023-12-04T15:22:01;3.30;99.60
7708;DHT22;3896;48.758;8.888;2023-12-04T15:24:27;3.20;99.70
7708;DHT22;3896;48.758;8.888;2023-12-04T15:26:52;3.20;99.70
7708;DHT22;3896;48.758;8.888;2023-12-04T15:29:18;3.20;99.70
7708;DHT22;3896;48.758;8.888;2023-12-04T15:31:46;3.20;99.80
7708;DHT22;3896;48.758;8.888;2023-12-04T15:34:12;3.20;99.70
7708;DHT22;3896;48.758;8.888;2023-12-04T15:36:38;3.20;99.60
7708;DHT22;3896;48.758;8.888;2023-12-04T15:39:03;3.20;99.60
7708;DHT22;3896;48.758;8.888;2023-12-04T15:41:30;3.20;99.60
7708;DHT22;3896;48.758;8.888;2023-12-04T15:43:56;3.20;99.50
7708;DHT22;3896;48.758;8.888;2023-12-04T15:46:21;3.20;99.40
7708;DHT22;3896;48.758;8.888;2023-12-04T15:48:47;3.20;99.30
7708;DHT22;3896;48.758;8.888;2023-12-04T15:51:13;3.20;99.00
7708;DHT22;3896;48.758;8.888;2023-12-04T15:53:40;3.20;99.00
7708;DHT22;3896;48.758;8.888;2023-12-04T15:56:06;3.20;98.70
7708;DHT22;3896;48.758;8.888;2023-12-04T15:58:33;3.20;98.50
7708;DHT22;3896;48.758;8.888;2023-12-04T16:01:01;3.10;98.20
7708;DHT22;3896;48.758;8.888;2023-12-04T16:03:29;3.10;98.10
7708;DHT22;3896;48.758;8.888;2023-12-04T16:05:55;3.10;98.10
7708;DHT22;3896;48.758;8.888;2023-12-04T16:08:21;3.10;97.90
7708;DHT22;3896;48.758;8.888;2023-12-04T16:10:46;3.10;97.70
7708;DHT22;3896;48.758;8.888;2023-12-04T16:13:12;3.10;97.60
7708;DHT22;3896;48.758;8.888;2023-12-04T16:15:37;3.10;97.50
7708;DHT22;3896;48.758;8.888;2023-12-04T16:18:03;3.10;97.70